sensor_id;sensor_type;location;lat;lon;timestamp;pressure;altitude;pressure_sealevel;temperature;humidity
8366;BME280;4220;42.502;24.188;2023-01-28T00:00:53;94351.78;;;0.55;100.00
8366;BME280;4220;42.502;24.188;2023-01-28T00:03:22;94360.06;;;0.44;100.00
8366;BME280;4220;42.502;24.188;2023-01-28T00:05:49;94356.91;;;0.48;100.00
8366;BME280;4220;42.502;24.188;2023-01-28T00:08:15;94354.47;;;0.47;100.00
8366;BME280;4220;42.502;24.188;2023-01-28T00:10:42;94360.50;;;0.47;100.00
8366;BME280;4220;42.502;24.188;2023-01-28T00:13:11;94349.34;;;0.24;100.00
8366;BME280;4220;42.502;24.188;2023-01-28T00:15:39;94361.78;;;0.37;100.00
8366;BME280;4220;42.502;24.188;2023-01-28T00:18:06;94351.78;;;0.40;100.00
8366;BME280;4220;42.502;24.188;2023-01-28T00:20:34;94369.06;;;0.41;100.00
8366;BME280;4220;42.502;24.188;2023-01-28T00:23:01;94376.41;;;0.38;100.00
8366;BME280;4220;42.502;24.188;2023-01-28T00:25:28;94375.25;;;0.40;100.00
8366;BME280;4220;42.502;24.188;2023-01-28T00:27:55;94367.44;;;0.40;100.00
8366;BME280;4220;42.502;24.188;2023-01-28T00:30:21;94382.88;;;0.42;100.00
8366;BME280;4220;42.502;24.188;2023-01-28T00:32:48;94378.88;;;0.39;100.00
8366;BME280;4220;42.502;24.188;2023-01-28T00:35:15;94382.63;;;0.37;100.00
8366;BME280;4220;42.502;24.188;2023-01-28T00:37:45;94372.84;;;0.39;100.00
8366;BME280;4220;42.502;24.188;2023-01-28T00:40:13;94398.09;;;0.38;100.00
8366;BME280;4220;42.502;24.188;2023-01-28T00:42:39;94403.66;;;0.35;100.00
8366;BME280;4220;42.502;24.188;2023-01-28T00:45:07;94394.56;;;0.31;100.00
8366;BME280;4220;42.502;24.188;2023-01-28T00:47:34;94395.19;;;0.33;100.00
8366;BME280;4220;42.502;24.188;2023-01-28T00:50:01;94387.56;;;0.32;100.00
8366;BME280;4220;42.502;24.188;2023-01-28T00:52:28;94400.88;;;0.37;100.00
8366;BME280;4220;42.502;24.188;2023-01-28T00:54:56;94399.06;;;0.37;100.00
8366;BME280;4220;42.502;24.188;2023-01-28T00:57:23;94409.69;;;0.36;100.00
8366;BME280;4220;42.502;24.188;2023-01-28T00:59:50;94402.50;;;0.38;100.00
8366;BME280;4220;42.502;24.188;2023-01-28T01:02:16;94400.06;;;0.36;100.00
8366;BME280;4220;42.502;24.188;2023-01-28T01:04:43;94402.34;;;0.39;100.00
8366;BME280;4220;42.502;24.188;2023-01-28T01:07:21;94400.41;;;0.33;100.00
8366;BME280;4220;42.502;24.188;2023-01-28T01:09:58;94419.25;;;0.43;100.00
8366;BME280;4220;42.502;24.188;2023-01-28T01:12:25;94413.41;;;0.41;100.00
8366;BME280;4220;42.502;24.188;2023-01-28T01:14:52;94416.00;;;0.41;100.00
8366;BME280;4220;42.502;24.188;2023-01-28T01:17:19;94410.16;;;0.39;100.00
8366;BME280;4220;42.502;24.188;2023-01-28T01:19:46;94408.97;;;0.42;100.00
8366;BME280;4220;42.502;24.188;2023-01-28T01:22:13;94403.94;;;0.40;100.00
8366;BME280;4220;42.502;24.188;2023-01-28T01:24:40;94410.78;;;0.41;100.00
8366;BME280;4220;42.502;24.188;2023-01-28T01:27:08;94414.31;;;0.48;100.00
8366;BME280;4220;42.502;24.188;2023-01-28T01:29:35;94417.78;;;0.41;100.00
8366;BME280;4220;42.502;24.188;2023-01-28T01:32:02;94402.50;;;0.38;100.00
8366;BME280;4220;42.502;24.188;2023-01-28T01:34:29;94408.25;;;0.33;100.00
8366;BME280;4220;42.502;24.188;2023-01-28T01:36:56;94424.84;;;0.32;100.00
8366;BME280;4220;42.502;24.188;2023-01-28T01:39:23;94422.63;;;0.29;100.00
8366;BME280;4220;42.502;24.188;2023-01-28T01:41:50;94414.63;;;0.31;100.00
8366;BME280;4220;42.502;24.188;2023-01-28T01:44:46;94421.00;;;0.28;100.00
8366;BME280;4220;42.502;24.188;2023-01-28T01:47:19;94423.59;;;0.28;100.00
8366;BME280;4220;42.502;24.188;2023-01-28T01:49:47;94408.63;;;0.22;100.00
8366;BME280;4220;42.502;24.188;2023-01-28T01:52:17;94423.78;;;0.27;100.00
8366;BME280;4220;42.502;24.188;2023-01-28T01:54:50;94413.34;;;0.27;100.00
8366;BME280;4220;42.502;24.188;2023-01-28T01:57:21;94425.38;;;0.28;100.00
8366;BME280;4220;42.502;24.188;2023-01-28T01:59:51;94434.03;;;0.28;100.00
8366;BME280;4220;42.502;24.188;2023-01-28T02:02:19;94428.91;;;0.35;100.00
8366;BME280;4220;42.502;24.188;2023-01-28T02:04:46;94436.88;;;0.41;100.00
8366;BME280;4220;42.502;24.188;2023-01-28T02:07:14;94443.97;;;0.47;100.00
8366;BME280;4220;42.502;24.188;2023-01-28T02:09:41;94435.00;;;0.50;100.00
8366;BME280;4220;42.502;24.188;2023-01-28T02:12:10;94438.38;;;0.36;100.00
8366;BME280;4220;42.502;24.188;2023-01-28T02:14:42;94430.75;;;0.34;100.00
8366;BME280;4220;42.502;24.188;2023-01-28T02:17:12;94451.31;;;0.29;100.00
8366;BME280;4220;42.502;24.188;2023-01-28T02:19:43;94436.28;;;0.31;100.00
8366;BME280;4220;42.502;24.188;2023-01-28T02:22:33;94453.91;;;0.29;100.00
8366;BME280;4220;42.502;24.188;2023-01-28T02:25:26;94442.47;;;0.30;100.00
8366;BME280;4220;42.502;24.188;2023-01-28T02:30:51;94446.09;;;0.29;100.00
8366;BME280;4220;42.502;24.188;2023-01-28T02:33:25;94452.09;;;0.30;100.00
8366;BME280;4220;42.502;24.188;2023-01-28T02:35:55;94464.69;;;0.26;100.00
8366;BME280;4220;42.502;24.188;2023-01-28T02:38:26;94445.16;;;0.22;100.00
8366;BME280;4220;42.502;24.188;2023-01-28T02:40:59;94458.94;;;0.31;100.00
8366;BME280;4220;42.502;24.188;2023-01-28T02:43:36;94452.91;;;0.30;100.00
8366;BME280;4220;42.502;24.188;2023-01-28T02:46:12;94455.88;;;0.27;100.00
8366;BME280;4220;42.502;24.188;2023-01-28T02:48:58;94456.34;;;0.31;100.00
8366;BME280;4220;42.502;24.188;2023-01-28T02:51:34;94453.09;;;0.29;100.00
8366;BME280;4220;42.502;24.188;2023-01-28T02:54:10;94429.34;;;0.24;100.00
8366;BME280;4220;42.502;24.188;2023-01-28T02:56:44;94440.78;;;0.37;100.00
8366;BME280;4220;42.502;24.188;2023-01-28T02:59:16;94469.63;;;0.44;100.00
8366;BME280;4220;42.502;24.188;2023-01-28T03:02:09;94453.84;;;0.37;100.00
8366;BME280;4220;42.502;24.188;2023-01-28T03:04:44;94454.50;;;0.39;100.00
8366;BME280;4220;42.502;24.188;2023-01-28T03:07:15;94458.59;;;0.34;100.00
8366;BME280;4220;42.502;24.188;2023-01-28T03:09:44;94456.00;;;0.34;100.00
8366;BME280;4220;42.502;24.188;2023-01-28T03:12:13;94451.31;;;0.29;100.00
8366;BME280;4220;42.502;24.188;2023-01-28T03:15:04;94463.47;;;0.37;100.00
8366;BME280;4220;42.502;24.188;2023-01-28T03:17:54;94464.75;;;0.41;100.00
8366;BME280;4220;42.502;24.188;2023-01-28T03:20:46;94458.03;;;0.46;100.00
8366;BME280;4220;42.502;24.188;2023-01-28T03:23:37;94423.31;;;0.23;100.00
8366;BME280;4220;42.502;24.188;2023-01-28T03:26:25;94462.19;;;0.55;100.00
8366;BME280;4220;42.502;24.188;2023-01-28T03:29:13;94470.19;;;0.54;100.00
8366;BME280;4220;42.502;24.188;2023-01-28T03:32:00;94467.44;;;0.47;100.00
8366;BME280;4220;42.502;24.188;2023-01-28T03:34:45;94430.22;;;0.16;100.00
8366;BME280;4220;42.502;24.188;2023-01-28T03:37:31;94473.00;;;0.44;100.00
8366;BME280;4220;42.502;24.188;2023-01-28T03:40:01;94429.59;;;0.14;100.00
8366;BME280;4220;42.502;24.188;2023-01-28T03:42:30;94469.78;;;0.42;100.00
8366;BME280;4220;42.502;24.188;2023-01-28T03:44:57;94465.84;;;0.46;100.00
8366;BME280;4220;42.502;24.188;2023-01-28T03:47:28;94472.03;;;0.45;100.00
8366;BME280;4220;42.502;24.188;2023-01-28T03:49:57;94470.25;;;0.46;100.00
8366;BME280;4220;42.502;24.188;2023-01-28T03:52:27;94468.38;;;0.54;100.00
8366;BME280;4220;42.502;24.188;2023-01-28T03:54:56;94480.72;;;0.60;100.00
8366;BME280;4220;42.502;24.188;2023-01-28T03:57:24;94480.00;;;0.66;100.00
8366;BME280;4220;42.502;24.188;2023-01-28T03:59:52;94482.13;;;0.71;100.00
8366;BME280;4220;42.502;24.188;2023-01-28T04:02:20;94488.66;;;0.67;100.00
8366;BME280;4220;42.502;24.188;2023-01-28T04:04:49;94478.00;;;0.54;100.00
8366;BME280;4220;42.502;24.188;2023-01-28T04:07:16;94484.16;;;0.61;100.00
8366;BME280;4220;42.502;24.188;2023-01-28T04:09:43;94496.44;;;0.52;100.00
8366;BME280;4220;42.502;24.188;2023-01-28T04:12:10;94465.28;;;0.36;100.00
8366;BME280;4220;42.502;24.188;2023-01-28T04:14:37;94504.88;;;0.54;100.00
8366;BME280;4220;42.502;24.188;2023-01-28T04:17:05;94518.13;;;0.53;100.00
8366;BME280;4220;42.502;24.188;2023-01-28T04:19:35;94498.59;;;0.49;100.00
8366;BME280;4220;42.502;24.188;2023-01-28T04:22:05;94503.00;;;0.48;100.00
8366;BME280;4220;42.502;24.188;2023-01-28T04:24:32;94496.84;;;0.41;100.00
8366;BME280;4220;42.502;24.188;2023-01-28T04:26:59;94508.75;;;0.44;100.00
8366;BME280;4220;42.502;24.188;2023-01-28T04:29:26;94514.59;;;0.46;100.00
8366;BME280;4220;42.502;24.188;2023-01-28T04:31:53;94519.09;;;0.52;100.00
8366;BME280;4220;42.502;24.188;2023-01-28T04:34:20;94507.59;;;0.46;100.00
8366;BME280;4220;42.502;24.188;2023-01-28T04:36:47;94523.69;;;0.50;100.00
8366;BME280;4220;42.502;24.188;2023-01-28T04:39:15;94527.72;;;0.52;100.00
8366;BME280;4220;42.502;24.188;2023-01-28T04:41:42;94531.72;;;0.40;100.00
8366;BME280;4220;42.502;24.188;2023-01-28T04:44:09;94527.97;;;0.43;100.00
8366;BME280;4220;42.502;24.188;2023-01-28T04:46:36;94528.50;;;0.38;100.00
8366;BME280;4220;42.502;24.188;2023-01-28T04:49:03;94539.91;;;0.37;100.00
8366;BME280;4220;42.502;24.188;2023-01-28T04:51:29;94544.47;;;0.35;100.00
8366;BME280;4220;42.502;24.188;2023-01-28T04:53:56;94540.91;;;0.36;100.00
8366;BME280;4220;42.502;24.188;2023-01-28T04:56:24;94543.38;;;0.30;100.00
8366;BME280;4220;42.502;24.188;2023-01-28T04:58:51;94543.72;;;0.27;100.00
8366;BME280;4220;42.502;24.188;2023-01-28T05:01:18;94555.94;;;0.26;100.00
8366;BME280;4220;42.502;24.188;2023-01-28T05:03:45;94556.09;;;0.25;100.00
8366;BME280;4220;42.502;24.188;2023-01-28T05:06:11;94547.13;;;0.27;100.00
8366;BME280;4220;42.502;24.188;2023-01-28T05:08:38;94552.00;;;0.30;100.00
8366;BME280;4220;42.502;24.188;2023-01-28T05:11:05;94558.72;;;0.25;100.00
8366;BME280;4220;42.502;24.188;2023-01-28T05:13:33;94560.88;;;0.21;100.00
8366;BME280;4220;42.502;24.188;2023-01-28T05:16:00;94563.34;;;0.15;100.00
8366;BME280;4220;42.502;24.188;2023-01-28T05:18:27;94564.84;;;0.09;100.00
8366;BME280;4220;42.502;24.188;2023-01-28T05:20:54;94553.28;;;0.04;100.00
8366;BME280;4220;42.502;24.188;2023-01-28T05:23:20;94555.56;;;0.07;100.00
8366;BME280;4220;42.502;24.188;2023-01-28T05:25:47;94557.06;;;0.01;100.00
8366;BME280;4220;42.502;24.188;2023-01-28T05:28:14;94563.53;;;0.05;100.00
8366;BME280;4220;42.502;24.188;2023-01-28T05:30:42;94563.91;;;0.02;100.00
8366;BME280;4220;42.502;24.188;2023-01-28T05:33:09;94555.91;;;0.04;100.00
8366;BME280;4220;42.502;24.188;2023-01-28T05:35:36;94553.81;;;-0.01;100.00
8366;BME280;4220;42.502;24.188;2023-01-28T05:38:04;94563.09;;;0.02;100.00
8366;BME280;4220;42.502;24.188;2023-01-28T05:40:31;94560.19;;;-0.12;100.00
8366;BME280;4220;42.502;24.188;2023-01-28T05:42:58;94583.16;;;-0.07;100.00
8366;BME280;4220;42.502;24.188;2023-01-28T05:45:25;94561.31;;;-0.06;100.00
8366;BME280;4220;42.502;24.188;2023-01-28T05:47:53;94582.19;;;-0.06;100.00
8366;BME280;4220;42.502;24.188;2023-01-28T05:50:20;94572.09;;;-0.09;100.00
8366;BME280;4220;42.502;24.188;2023-01-28T05:52:46;94572.56;;;-0.06;100.00
8366;BME280;4220;42.502;24.188;2023-01-28T05:55:13;94582.19;;;-0.06;100.00
8366;BME280;4220;42.502;24.188;2023-01-28T05:57:40;94570.47;;;-0.10;100.00
8366;BME280;4220;42.502;24.188;2023-01-28T06:00:10;94600.13;;;-0.11;100.00
8366;BME280;4220;42.502;24.188;2023-01-28T06:02:37;94587.38;;;-0.06;100.00
8366;BME280;4220;42.502;24.188;2023-01-28T06:05:06;94592.59;;;-0.06;100.00
8366;BME280;4220;42.502;24.188;2023-01-28T06:07:33;94598.75;;;0.01;100.00
8366;BME280;4220;42.502;24.188;2023-01-28T06:10:00;94567.25;;;-0.20;100.00
8366;BME280;4220;42.502;24.188;2023-01-28T06:12:27;94612.41;;;0.11;100.00
8366;BME280;4220;42.502;24.188;2023-01-28T06:14:53;94609.16;;;0.09;100.00
8366;BME280;4220;42.502;24.188;2023-01-28T06:17:20;94576.47;;;-0.10;100.00
8366;BME280;4220;42.502;24.188;2023-01-28T06:19:47;94622.81;;;0.19;100.00
8366;BME280;4220;42.502;24.188;2023-01-28T06:22:15;94630.94;;;0.24;100.00
8366;BME280;4220;42.502;24.188;2023-01-28T06:24:42;94626.50;;;0.25;100.00
8366;BME280;4220;42.502;24.188;2023-01-28T06:27:09;94620.81;;;0.29;100.00
8366;BME280;4220;42.502;24.188;2023-01-28T06:29:36;94637.91;;;0.32;100.00
8366;BME280;4220;42.502;24.188;2023-01-28T06:32:03;94635.97;;;0.26;100.00
8366;BME280;4220;42.502;24.188;2023-01-28T06:34:30;94640.84;;;0.29;100.00
8366;BME280;4220;42.502;24.188;2023-01-28T06:36:57;94644.59;;;0.34;100.00
8366;BME280;4220;42.502;24.188;2023-01-28T06:39:26;94649.44;;;0.37;100.00
8366;BME280;4220;42.502;24.188;2023-01-28T06:41:56;94599.50;;;0.18;100.00
8366;BME280;4220;42.502;24.188;2023-01-28T06:44:23;94650.38;;;0.44;100.00
8366;BME280;4220;42.502;24.188;2023-01-28T06:46:50;94612.00;;;0.22;100.00
8366;BME280;4220;42.502;24.188;2023-01-28T06:49:16;94653.56;;;0.62;100.00
8366;BME280;4220;42.502;24.188;2023-01-28T06:51:44;94642.47;;;0.60;100.00
8366;BME280;4220;42.502;24.188;2023-01-28T06:54:11;94657.09;;;0.70;100.00
8366;BME280;4220;42.502;24.188;2023-01-28T06:56:39;94663.72;;;0.80;100.00
8366;BME280;4220;42.502;24.188;2023-01-28T06:59:06;94670.56;;;0.81;100.00
8366;BME280;4220;42.502;24.188;2023-01-28T07:01:33;94667.81;;;0.83;100.00
8366;BME280;4220;42.502;24.188;2023-01-28T07:04:00;94680.09;;;0.97;100.00
8366;BME280;4220;42.502;24.188;2023-01-28T07:06:27;94683.97;;;1.01;100.00
8366;BME280;4220;42.502;24.188;2023-01-28T07:08:53;94672.91;;;0.99;100.00
8366;BME280;4220;42.502;24.188;2023-01-28T07:11:20;94680.88;;;1.05;100.00
8366;BME280;4220;42.502;24.188;2023-01-28T07:13:48;94681.28;;;1.17;100.00
8366;BME280;4220;42.502;24.188;2023-01-28T07:16:15;94649.47;;;0.91;100.00
8366;BME280;4220;42.502;24.188;2023-01-28T07:18:42;94691.97;;;1.07;100.00
8366;BME280;4220;42.502;24.188;2023-01-28T07:21:09;94695.69;;;1.13;100.00
8366;BME280;4220;42.502;24.188;2023-01-28T07:23:36;94705.41;;;1.19;100.00
8366;BME280;4220;42.502;24.188;2023-01-28T07:26:04;94652.84;;;0.99;100.00
8366;BME280;4220;42.502;24.188;2023-01-28T07:28:31;94699.84;;;1.22;100.00
8366;BME280;4220;42.502;24.188;2023-01-28T07:30:59;94712.50;;;1.33;100.00
8366;BME280;4220;42.502;24.188;2023-01-28T07:33:26;94715.63;;;1.28;100.00
8366;BME280;4220;42.502;24.188;2023-01-28T07:35:53;94711.91;;;1.23;100.00
8366;BME280;4220;42.502;24.188;2023-01-28T07:38:20;94722.84;;;1.26;100.00
8366;BME280;4220;42.502;24.188;2023-01-28T07:40:47;94719.59;;;1.24;100.00
8366;BME280;4220;42.502;24.188;2023-01-28T07:43:13;94726.50;;;1.17;100.00
8366;BME280;4220;42.502;24.188;2023-01-28T07:45:40;94705.41;;;1.19;100.00
8366;BME280;4220;42.502;24.188;2023-01-28T07:48:10;94724.28;;;1.29;100.00
8366;BME280;4220;42.502;24.188;2023-01-28T07:50:38;94714.81;;;1.28;100.00
8366;BME280;4220;42.502;24.188;2023-01-28T07:53:07;94730.72;;;1.41;100.00
8366;BME280;4220;42.502;24.188;2023-01-28T07:55:35;94749.19;;;1.40;100.00
8366;BME280;4220;42.502;24.188;2023-01-28T07:58:04;94725.06;;;1.38;100.00
8366;BME280;4220;42.502;24.188;2023-01-28T08:00:33;94750.69;;;1.34;100.00
8366;BME280;4220;42.502;24.188;2023-01-28T08:03:01;94736.28;;;1.38;100.00
8366;BME280;4220;42.502;24.188;2023-01-28T08:05:37;94699.66;;;1.23;100.00
8366;BME280;4220;42.502;24.188;2023-01-28T08:08:06;94734.59;;;1.45;100.00
8366;BME280;4220;42.502;24.188;2023-01-28T08:10:33;94746.59;;;1.40;100.00
8366;BME280;4220;42.502;24.188;2023-01-28T08:13:00;94734.84;;;1.36;100.00
8366;BME280;4220;42.502;24.188;2023-01-28T08:15:27;94745.25;;;1.44;100.00
8366;BME280;4220;42.502;24.188;2023-01-28T08:17:54;94757.34;;;1.45;100.00
8366;BME280;4220;42.502;24.188;2023-01-28T08:20:22;94753.09;;;1.44;100.00
8366;BME280;4220;42.502;24.188;2023-01-28T08:22:50;94748.69;;;1.44;100.00
8366;BME280;4220;42.502;24.188;2023-01-28T08:25:17;94758.13;;;1.45;100.00
8366;BME280;4220;42.502;24.188;2023-01-28T08:27:44;94761.75;;;1.44;100.00
8366;BME280;4220;42.502;24.188;2023-01-28T08:30:11;94753.25;;;1.42;100.00
8366;BME280;4220;42.502;24.188;2023-01-28T08:32:38;94757.16;;;1.46;100.00
8366;BME280;4220;42.502;24.188;2023-01-28T08:35:05;94755.16;;;1.48;100.00
8366;BME280;4220;42.502;24.188;2023-01-28T08:37:33;94758.41;;;1.50;100.00
8366;BME280;4220;42.502;24.188;2023-01-28T08:40:01;94758.38;;;1.58;100.00
8366;BME280;4220;42.502;24.188;2023-01-28T08:42:28;94774.34;;;1.63;100.00
8366;BME280;4220;42.502;24.188;2023-01-28T08:44:55;94765.97;;;1.68;100.00
8366;BME280;4220;42.502;24.188;2023-01-28T08:47:22;94757.31;;;1.67;100.00
8366;BME280;4220;42.502;24.188;2023-01-28T08:49:48;94764.13;;;1.76;100.00
8366;BME280;4220;42.502;24.188;2023-01-28T08:52:15;94788.31;;;1.70;100.00
8366;BME280;4220;42.502;24.188;2023-01-28T08:54:42;94773.47;;;1.71;100.00
8366;BME280;4220;42.502;24.188;2023-01-28T08:57:10;94766.16;;;1.66;100.00
8366;BME280;4220;42.502;24.188;2023-01-28T08:59:37;94775.06;;;1.57;100.00
8366;BME280;4220;42.502;24.188;2023-01-28T09:02:12;94772.00;;;1.68;100.00
8366;BME280;4220;42.502;24.188;2023-01-28T09:04:39;94776.72;;;1.73;100.00
8366;BME280;4220;42.502;24.188;2023-01-28T09:07:06;94779.16;;;1.74;100.00
8366;BME280;4220;42.502;24.188;2023-01-28T09:09:33;94779.50;;;1.71;100.00
8366;BME280;4220;42.502;24.188;2023-01-28T09:12:00;94775.09;;;1.72;100.00
8366;BME280;4220;42.502;24.188;2023-01-28T09:14:28;94777.19;;;1.76;100.00
8366;BME280;4220;42.502;24.188;2023-01-28T09:16:55;94786.59;;;1.85;100.00
8366;BME280;4220;42.502;24.188;2023-01-28T09:19:21;94790.84;;;1.86;100.00
8366;BME280;4220;42.502;24.188;2023-01-28T09:21:48;94787.94;;;1.81;100.00
8366;BME280;4220;42.502;24.188;2023-01-28T09:24:15;94803.63;;;1.81;100.00
8366;BME280;4220;42.502;24.188;2023-01-28T09:26:43;94790.53;;;1.81;100.00
8366;BME280;4220;42.502;24.188;2023-01-28T09:29:10;94790.88;;;1.78;100.00
8366;BME280;4220;42.502;24.188;2023-01-28T09:31:38;94787.28;;;1.79;100.00
8366;BME280;4220;42.502;24.188;2023-01-28T09:34:05;94780.44;;;1.78;100.00
8366;BME280;4220;42.502;24.188;2023-01-28T09:36:32;94775.56;;;1.75;100.00
8366;BME280;4220;42.502;24.188;2023-01-28T09:38:59;94792.72;;;1.92;100.00
8366;BME280;4220;42.502;24.188;2023-01-28T09:41:27;94799.13;;;1.90;100.00
8366;BME280;4220;42.502;24.188;2023-01-28T09:44:06;94742.97;;;1.63;100.00
8366;BME280;4220;42.502;24.188;2023-01-28T09:46:40;94796.06;;;1.86;100.00
8366;BME280;4220;42.502;24.188;2023-01-28T09:49:16;94800.88;;;1.97;100.00
8366;BME280;4220;42.502;24.188;2023-01-28T09:51:48;94801.91;;;2.11;100.00
8366;BME280;4220;42.502;24.188;2023-01-28T09:54:23;94785.75;;;2.08;100.00
8366;BME280;4220;42.502;24.188;2023-01-28T09:56:55;94790.13;;;1.92;100.00
8366;BME280;4220;42.502;24.188;2023-01-28T09:59:27;94807.16;;;1.88;100.00
8366;BME280;4220;42.502;24.188;2023-01-28T10:02:00;94819.41;;;1.88;100.00
8366;BME280;4220;42.502;24.188;2023-01-28T10:04:39;94798.53;;;2.03;100.00
8366;BME280;4220;42.502;24.188;2023-01-28T10:07:19;94793.31;;;2.03;100.00
8366;BME280;4220;42.502;24.188;2023-01-28T10:09:55;94815.56;;;1.98;100.00
8366;BME280;4220;42.502;24.188;2023-01-28T10:12:38;94791.13;;;1.91;100.00
8366;BME280;4220;42.502;24.188;2023-01-28T10:15:25;94798.16;;;1.91;100.00
8366;BME280;4220;42.502;24.188;2023-01-28T10:18:00;94793.91;;;1.90;100.00
8366;BME280;4220;42.502;24.188;2023-01-28T10:20:31;94807.09;;;1.96;100.00
8366;BME280;4220;42.502;24.188;2023-01-28T10:23:04;94799.81;;;2.07;100.00
8366;BME280;4220;42.502;24.188;2023-01-28T10:25:33;94796.84;;;2.10;100.00
8366;BME280;4220;42.502;24.188;2023-01-28T10:28:01;94791.44;;;2.11;100.00
8366;BME280;4220;42.502;24.188;2023-01-28T10:30:30;94812.53;;;2.10;100.00
8366;BME280;4220;42.502;24.188;2023-01-28T10:33:03;94810.25;;;2.07;100.00
8366;BME280;4220;42.502;24.188;2023-01-28T10:35:34;94802.78;;;2.04;100.00
8366;BME280;4220;42.502;24.188;2023-01-28T10:38:07;94806.13;;;2.12;100.00
8366;BME280;4220;42.502;24.188;2023-01-28T10:40:40;94812.72;;;2.08;100.00
8366;BME280;4220;42.502;24.188;2023-01-28T10:43:07;94803.50;;;2.12;100.00
8366;BME280;4220;42.502;24.188;2023-01-28T10:45:37;94787.72;;;2.06;100.00
8366;BME280;4220;42.502;24.188;2023-01-28T10:48:13;94812.16;;;1.98;100.00
8366;BME280;4220;42.502;24.188;2023-01-28T10:50:49;94796.91;;;2.02;100.00
8366;BME280;4220;42.502;24.188;2023-01-28T10:53:16;94757.63;;;1.87;100.00
8366;BME280;4220;42.502;24.188;2023-01-28T10:55:48;94792.81;;;2.22;100.00
8366;BME280;4220;42.502;24.188;2023-01-28T10:58:17;94793.81;;;2.21;100.00
8366;BME280;4220;42.502;24.188;2023-01-28T11:00:51;94803.25;;;2.22;100.00
8366;BME280;4220;42.502;24.188;2023-01-28T11:03:20;94799.03;;;2.21;100.00
8366;BME280;4220;42.502;24.188;2023-01-28T11:05:52;94790.03;;;2.23;100.00
8366;BME280;4220;42.502;24.188;2023-01-28T11:08:21;94811.13;;;2.36;100.00
8366;BME280;4220;42.502;24.188;2023-01-28T11:10:49;94787.78;;;2.35;100.00
8366;BME280;4220;42.502;24.188;2023-01-28T11:13:17;94807.97;;;2.41;100.00
8366;BME280;4220;42.502;24.188;2023-01-28T11:15:48;94798.47;;;2.48;100.00
8366;BME280;4220;42.502;24.188;2023-01-28T11:18:17;94787.25;;;2.54;100.00
8366;BME280;4220;42.502;24.188;2023-01-28T11:20:52;94816.03;;;2.39;100.00
8366;BME280;4220;42.502;24.188;2023-01-28T11:23:23;94790.94;;;2.45;100.00
8366;BME280;4220;42.502;24.188;2023-01-28T11:26:13;94818.56;;;2.47;100.00
8366;BME280;4220;42.502;24.188;2023-01-28T11:28:42;94761.41;;;2.22;100.00
8366;BME280;4220;42.502;24.188;2023-01-28T11:31:11;94810.88;;;2.46;100.00
8366;BME280;4220;42.502;24.188;2023-01-28T11:33:44;94788.50;;;2.43;100.00
8366;BME280;4220;42.502;24.188;2023-01-28T11:36:16;94800.69;;;2.51;100.00
8366;BME280;4220;42.502;24.188;2023-01-28T11:38:51;94794.22;;;2.61;100.00
8366;BME280;4220;42.502;24.188;2023-01-28T11:41:24;94813.78;;;2.51;100.00
8366;BME280;4220;42.502;24.188;2023-01-28T11:43:52;94788.78;;;2.48;100.00
8366;BME280;4220;42.502;24.188;2023-01-28T11:46:41;94787.25;;;2.54;100.00
8366;BME280;4220;42.502;24.188;2023-01-28T11:49:19;94747.16;;;2.39;100.00
8366;BME280;4220;42.502;24.188;2023-01-28T11:51:53;94806.03;;;2.72;100.00
8366;BME280;4220;42.502;24.188;2023-01-28T11:54:31;94813.91;;;2.57;100.00
8366;BME280;4220;42.502;24.188;2023-01-28T11:57:10;94793.84;;;2.50;100.00
8366;BME280;4220;42.502;24.188;2023-01-28T11:59:52;94812.53;;;2.47;100.00
8366;BME280;4220;42.502;24.188;2023-01-28T12:02:40;94810.88;;;2.46;100.00
8366;BME280;4220;42.502;24.188;2023-01-28T12:05:26;94808.91;;;2.48;100.00
8366;BME280;4220;42.502;24.188;2023-01-28T12:08:06;94797.72;;;2.54;100.00
8366;BME280;4220;42.502;24.188;2023-01-28T12:10:41;94795.94;;;2.69;100.00
8366;BME280;4220;42.502;24.188;2023-01-28T12:16:17;94818.75;;;2.60;100.00
8366;BME280;4220;42.502;24.188;2023-01-28T12:19:05;94826.09;;;2.65;100.00
8366;BME280;4220;42.502;24.188;2023-01-28T12:21:45;94822.38;;;2.59;100.00
8366;BME280;4220;42.502;24.188;2023-01-28T12:24:26;94818.38;;;2.49;100.00
8366;BME280;4220;42.502;24.188;2023-01-28T12:27:01;94804.38;;;2.42;100.00
8366;BME280;4220;42.502;24.188;2023-01-28T12:29:37;94818.66;;;2.54;100.00
8366;BME280;4220;42.502;24.188;2023-01-28T12:32:27;94815.75;;;2.34;100.00
8366;BME280;4220;42.502;24.188;2023-01-28T12:35:21;94822.06;;;2.40;100.00
8366;BME280;4220;42.502;24.188;2023-01-28T12:37:58;94824.06;;;2.38;100.00
8366;BME280;4220;42.502;24.188;2023-01-28T12:40:42;94822.44;;;2.37;100.00
8366;BME280;4220;42.502;24.188;2023-01-28T12:43:14;94771.69;;;2.09;100.00
8366;BME280;4220;42.502;24.188;2023-01-28T12:45:46;94844.09;;;2.31;100.00
8366;BME280;4220;42.502;24.188;2023-01-28T12:48:20;94836.09;;;2.24;100.00
8366;BME280;4220;42.502;24.188;2023-01-28T12:50:52;94833.34;;;2.26;100.00
8366;BME280;4220;42.502;24.188;2023-01-28T12:53:24;94855.44;;;2.23;100.00
8366;BME280;4220;42.502;24.188;2023-01-28T12:55:59;94833.84;;;2.21;100.00
8366;BME280;4220;42.502;24.188;2023-01-28T12:58:38;94825.66;;;2.24;100.00
8366;BME280;4220;42.502;24.188;2023-01-28T13:01:13;94844.38;;;2.36;100.00
8366;BME280;4220;42.502;24.188;2023-01-28T13:03:47;94844.38;;;2.36;100.00
8366;BME280;4220;42.502;24.188;2023-01-28T13:06:20;94843.00;;;2.40;100.00
8366;BME280;4220;42.502;24.188;2023-01-28T13:08:55;94844.44;;;2.28;100.00
8366;BME280;4220;42.502;24.188;2023-01-28T13:11:32;94842.53;;;2.36;100.00
8366;BME280;4220;42.502;24.188;2023-01-28T13:14:00;94848.16;;;2.33;100.00
8366;BME280;4220;42.502;24.188;2023-01-28T13:16:28;94810.28;;;2.21;100.00
8366;BME280;4220;42.502;24.188;2023-01-28T13:19:05;94851.50;;;2.42;100.00
8366;BME280;4220;42.502;24.188;2023-01-28T13:21:33;94864.28;;;2.37;100.00
8366;BME280;4220;42.502;24.188;2023-01-28T13:24:20;94865.47;;;2.34;100.00
8366;BME280;4220;42.502;24.188;2023-01-28T13:26:50;94864.34;;;2.29;100.00
8366;BME280;4220;42.502;24.188;2023-01-28T13:29:28;94833.00;;;2.06;100.00
8366;BME280;4220;42.502;24.188;2023-01-28T13:31:57;94862.03;;;2.34;100.00
8366;BME280;4220;42.502;24.188;2023-01-28T13:34:31;94872.56;;;2.26;100.00